createdAt,value
2019-01-18T00:01:33.249Z,33.33
2019-01-18T00:04:02.831Z,30.53
2019-01-18T00:06:32.297Z,33.67
2019-01-18T00:09:01.716Z,34.10
2019-01-18T00:11:31.235Z,34.27
2019-01-18T00:14:00.717Z,36.17
2019-01-18T00:16:30.173Z,32.97
2019-01-18T00:18:59.629Z,37.37
2019-01-18T00:21:29.075Z,32.77
2019-01-18T00:24:00.407Z,37.50
2019-01-18T00:26:29.868Z,32.20
2019-01-18T00:28:59.355Z,33.43
2019-01-18T00:31:29.183Z,39.97
2019-01-18T00:34:00.936Z,36.80
2019-01-18T00:36:30.406Z,29.83
2019-01-18T00:38:59.955Z,41.73
2019-01-18T00:41:29.429Z,39.17
2019-01-18T00:43:59.300Z,34.83
2019-01-18T00:46:28.760Z,36.30
2019-01-18T00:48:58.222Z,33.80
2019-01-18T00:51:29.733Z,39.20
2019-01-18T00:53:59.266Z,38.47
2019-01-18T00:56:29.099Z,32.93
2019-01-18T00:58:58.682Z,41.93
2019-01-18T01:01:28.148Z,31.97
2019-01-18T01:03:57.584Z,38.80
2019-01-18T01:06:28.107Z,45.70
2019-01-18T01:08:57.640Z,40.13
2019-01-18T01:11:27.078Z,47.60
2019-01-18T01:13:56.840Z,38.50
2019-01-18T01:16:26.308Z,37.60
2019-01-18T01:18:55.766Z,38.90
2019-01-18T01:21:25.194Z,38.37
2019-01-18T01:23:54.706Z,36.23
2019-01-18T01:26:24.142Z,36.43
2019-01-18T01:28:53.629Z,35.67
2019-01-18T01:31:23.103Z,37.83
2019-01-18T01:33:52.535Z,36.30
2019-01-18T01:36:22.036Z,36.20
2019-01-18T01:38:51.491Z,38.17
2019-01-18T01:41:20.939Z,35.40
2019-01-18T01:43:50.429Z,32.73
2019-01-18T01:46:19.867Z,32.73
2019-01-18T01:48:49.326Z,33.17
2019-01-18T01:51:18.828Z,29.80
2019-01-18T01:53:48.292Z,30.03
2019-01-18T01:56:17.723Z,36.47
2019-01-18T01:58:47.213Z,22.70
2019-01-18T02:01:16.653Z,26.50
2019-01-18T02:03:46.084Z,24.57
2019-01-18T02:06:15.559Z,26.20
2019-01-18T02:08:45.003Z,32.67
2019-01-18T02:11:14.473Z,36.53
2019-01-18T02:13:43.950Z,25.87
2019-01-18T02:16:13.423Z,16.33
2019-01-18T02:18:42.892Z,18.73
2019-01-18T02:21:12.343Z,21.00
2019-01-18T02:23:41.785Z,26.73
2019-01-18T02:26:11.219Z,15.77
2019-01-18T02:28:40.722Z,16.83
2019-01-18T02:31:10.178Z,17.83
2019-01-18T02:33:39.620Z,16.93
2019-01-18T02:36:09.248Z,19.93
2019-01-18T02:38:38.704Z,19.70
2019-01-18T02:41:08.195Z,12.50
2019-01-18T02:43:37.648Z,10.87
2019-01-18T02:46:07.091Z,11.00
2019-01-18T02:48:36.611Z,10.57
2019-01-18T02:51:06.033Z,9.13
2019-01-18T02:53:35.489Z,9.77
2019-01-18T02:56:05.161Z,7.67
2019-01-18T02:58:34.654Z,7.67
2019-01-18T03:01:04.111Z,5.37
2019-01-18T03:03:33.531Z,7.77
2019-01-18T03:06:03.033Z,10.53
2019-01-18T03:08:32.464Z,10.80
2019-01-18T03:11:01.907Z,6.97
2019-01-18T03:13:31.413Z,5.57
2019-01-18T03:16:00.883Z,5.50
2019-01-18T03:18:30.326Z,4.83
2019-01-18T03:21:00.143Z,5.30
2019-01-18T03:23:31.092Z,5.10
2019-01-18T03:26:00.572Z,5.60
2019-01-18T03:28:30.101Z,5.67
2019-01-18T03:30:59.869Z,5.20
2019-01-18T03:33:29.369Z,5.93
2019-01-18T03:35:58.842Z,4.83
2019-01-18T03:38:28.272Z,4.13
2019-01-18T03:40:57.735Z,3.50
2019-01-18T03:43:27.254Z,4.23
2019-01-18T03:45:56.703Z,4.87
2019-01-18T03:48:26.143Z,4.20
2019-01-18T03:50:55.620Z,3.83
2019-01-18T03:53:25.096Z,4.63
2019-01-18T03:55:54.545Z,5.20
2019-01-18T03:58:24.069Z,4.60
2019-01-18T04:00:53.492Z,4.60
2019-01-18T04:03:22.950Z,5.90
2019-01-18T04:05:52.446Z,5.60
2019-01-18T04:08:21.904Z,6.77
2019-01-18T04:10:51.326Z,7.17
2019-01-18T04:13:20.801Z,6.33
2019-01-18T04:15:50.220Z,6.97
2019-01-18T04:18:19.685Z,9.87
2019-01-18T04:20:49.140Z,8.77
2019-01-18T04:23:18.656Z,10.10
2019-01-18T04:25:48.209Z,9.50
2019-01-18T04:28:17.647Z,7.70
2019-01-18T04:30:47.135Z,9.13
2019-01-18T04:33:16.569Z,8.90
2019-01-18T04:35:46.044Z,8.63
2019-01-18T04:38:15.500Z,7.23
2019-01-18T04:40:44.936Z,11.73
2019-01-18T04:43:14.400Z,6.27
2019-01-18T04:45:43.817Z,5.77
2019-01-18T04:48:13.223Z,6.93
2019-01-18T04:50:42.681Z,5.67
2019-01-18T04:53:12.156Z,5.90
2019-01-18T04:55:41.671Z,7.37
2019-01-18T04:58:11.122Z,6.87
2019-01-18T05:00:41.584Z,8.07
2019-01-18T05:03:11.194Z,8.17
2019-01-18T05:05:40.673Z,7.43
2019-01-18T05:08:10.111Z,4.33
2019-01-18T05:10:39.540Z,5.83
2019-01-18T05:13:09.034Z,4.77
2019-01-18T05:15:38.489Z,5.60
2019-01-18T05:18:07.941Z,6.00
2019-01-18T05:20:37.486Z,7.93
2019-01-18T05:23:06.954Z,6.97
2019-01-18T05:25:36.431Z,4.80
2019-01-18T05:28:05.910Z,7.53
2019-01-18T05:30:35.357Z,6.07
2019-01-18T05:33:04.827Z,4.50
2019-01-18T05:35:34.310Z,5.13
2019-01-18T05:38:03.773Z,3.60
2019-01-18T05:40:33.295Z,5.20
2019-01-18T05:43:03.243Z,3.80
2019-01-18T05:45:32.745Z,6.20
2019-01-18T05:48:02.215Z,3.43
2019-01-18T05:50:31.714Z,5.77
2019-01-18T05:53:04.904Z,4.53
2019-01-18T05:55:34.430Z,5.83
2019-01-18T05:58:04.024Z,5.70
2019-01-18T06:00:55.385Z,4.63
2019-01-18T06:03:25.116Z,6.90
2019-01-18T06:05:54.563Z,7.67
2019-01-18T06:08:24.028Z,7.63
2019-01-18T06:10:53.469Z,5.03
2019-01-18T06:13:22.935Z,4.77
2019-01-18T06:15:52.674Z,6.00
2019-01-18T06:18:22.113Z,8.57
2019-01-18T06:20:51.580Z,5.90
2019-01-18T06:23:21.288Z,5.77
2019-01-18T06:25:50.730Z,7.50
2019-01-18T06:28:20.169Z,3.90
2019-01-18T06:30:49.665Z,9.80
2019-01-18T06:33:19.133Z,5.10
2019-01-18T06:35:48.624Z,6.83
2019-01-18T06:38:18.104Z,4.93
2019-01-18T06:40:48.746Z,4.63
2019-01-18T06:43:18.260Z,4.73
2019-01-18T06:45:47.750Z,7.10
2019-01-18T06:48:20.856Z,10.00
2019-01-18T06:50:50.367Z,26.00
2019-01-18T06:53:19.824Z,22.17
2019-01-18T06:55:49.261Z,11.73
2019-01-18T06:58:18.759Z,8.60
2019-01-18T07:00:48.205Z,9.27
2019-01-18T07:03:17.686Z,7.53
2019-01-18T07:05:47.187Z,12.97
2019-01-18T07:08:16.620Z,5.73
2019-01-18T07:10:46.081Z,8.43
2019-01-18T07:13:15.610Z,8.93
2019-01-18T07:15:45.088Z,8.13
2019-01-18T07:18:14.855Z,7.47
2019-01-18T07:20:44.360Z,7.70
2019-01-18T07:23:13.802Z,7.37
2019-01-18T07:25:43.275Z,7.57
2019-01-18T07:28:12.810Z,9.70
2019-01-18T07:30:43.410Z,5.07
2019-01-18T07:33:16.776Z,7.23
2019-01-18T07:35:46.237Z,11.50
2019-01-18T07:38:15.869Z,6.60
2019-01-18T07:40:45.421Z,7.17
2019-01-18T07:43:14.907Z,6.10
2019-01-18T07:45:44.389Z,6.80
2019-01-18T07:48:13.909Z,9.03
2019-01-18T07:50:43.402Z,7.13
2019-01-18T07:53:12.947Z,6.70
2019-01-18T07:55:42.467Z,7.17
2019-01-18T07:58:12.698Z,9.83
2019-01-18T08:00:42.271Z,6.73
2019-01-18T08:03:11.831Z,7.77
2019-01-18T08:05:41.289Z,9.67
2019-01-18T08:08:10.757Z,6.97
2019-01-18T08:10:40.258Z,10.03
2019-01-18T08:13:09.713Z,8.60
2019-01-18T08:15:39.169Z,7.13
2019-01-18T08:18:08.673Z,8.60
2019-01-18T08:20:38.147Z,9.10
2019-01-18T08:23:07.588Z,8.53
2019-01-18T08:25:37.093Z,12.23
2019-01-18T08:28:06.831Z,11.83
2019-01-18T08:30:36.351Z,9.33
2019-01-18T08:33:05.815Z,8.97
2019-01-18T08:35:35.344Z,9.57
2019-01-18T08:38:04.924Z,13.17
2019-01-18T08:40:43.441Z,13.50
2019-01-18T08:43:15.911Z,11.93
2019-01-18T08:45:57.357Z,12.13
2019-01-18T08:48:26.860Z,13.10
2019-01-18T08:50:56.430Z,15.70
2019-01-18T08:53:26.505Z,14.63
2019-01-18T08:55:56.051Z,12.40
2019-01-18T08:58:25.514Z,13.37
2019-01-18T09:00:55.050Z,10.73
2019-01-18T09:03:24.510Z,11.00
2019-01-18T09:05:54.027Z,19.33
2019-01-18T09:08:23.567Z,12.97
2019-01-18T09:10:53.038Z,9.73
2019-01-18T09:13:22.490Z,7.30
2019-01-18T09:15:52.012Z,5.27
2019-01-18T09:18:21.519Z,5.10
2019-01-18T09:20:50.960Z,5.90
2019-01-18T09:23:20.459Z,5.60
2019-01-18T09:25:49.901Z,5.93
2019-01-18T09:28:19.352Z,6.33
2019-01-18T09:30:49.022Z,11.63
2019-01-18T09:33:18.641Z,6.13
2019-01-18T09:35:48.129Z,7.03
2019-01-18T09:38:18.127Z,4.93
2019-01-18T09:40:47.708Z,4.33
2019-01-18T09:43:17.160Z,7.07
2019-01-18T09:45:46.672Z,6.77
2019-01-18T09:48:16.160Z,5.00
2019-01-18T09:50:45.629Z,7.70
2019-01-18T09:53:15.242Z,5.00
2019-01-18T09:55:44.763Z,7.07
2019-01-18T09:58:14.231Z,5.87
2019-01-18T10:00:43.796Z,6.43
2019-01-18T10:03:13.248Z,4.93
2019-01-18T10:05:42.885Z,4.43
2019-01-18T10:08:13.214Z,6.53
2019-01-18T10:10:42.758Z,5.40
2019-01-18T10:13:12.878Z,5.57
2019-01-18T10:15:44.590Z,6.57
2019-01-18T10:18:14.321Z,7.20
2019-01-18T10:20:43.839Z,6.80
2019-01-18T10:23:13.412Z,7.03
2019-01-18T10:25:42.957Z,12.37
2019-01-18T10:28:12.464Z,12.37
2019-01-18T10:30:41.997Z,10.67
2019-01-18T10:33:11.559Z,7.37
2019-01-18T10:35:41.177Z,8.33
2019-01-18T10:38:10.665Z,8.20
2019-01-18T10:40:40.198Z,10.00
2019-01-18T10:43:09.744Z,11.60
2019-01-18T10:45:39.218Z,12.73
2019-01-18T10:48:08.736Z,9.17
2019-01-18T10:50:38.220Z,10.50
2019-01-18T10:53:07.709Z,12.50
2019-01-18T10:55:37.362Z,10.63
2019-01-18T10:58:06.867Z,8.87
2019-01-18T11:00:37.296Z,9.40
2019-01-18T11:03:07.057Z,8.63
2019-01-18T11:05:36.525Z,8.73
2019-01-18T11:08:06.150Z,9.00
2019-01-18T11:10:35.628Z,10.47
2019-01-18T11:13:05.247Z,11.57
2019-01-18T11:15:36.219Z,14.47
2019-01-18T11:18:06.345Z,9.27
2019-01-18T11:20:51.609Z,11.30
2019-01-18T11:23:21.098Z,12.67
2019-01-18T11:25:50.568Z,14.37
2019-01-18T11:28:20.039Z,16.70
2019-01-18T11:30:49.533Z,13.70
2019-01-18T11:33:19.066Z,9.80
2019-01-18T11:35:49.987Z,13.97
2019-01-18T11:38:19.457Z,12.20
2019-01-18T11:40:48.903Z,8.67
2019-01-18T11:43:18.455Z,12.03
2019-01-18T11:45:47.966Z,9.53
2019-01-18T11:48:17.430Z,9.30
2019-01-18T11:50:46.966Z,7.57
2019-01-18T11:53:16.446Z,9.80
2019-01-18T11:55:45.976Z,8.43
2019-01-18T11:58:15.474Z,10.47
2019-01-18T12:00:44.982Z,8.03
2019-01-18T12:03:14.456Z,11.20
2019-01-18T12:05:44.020Z,11.30
2019-01-18T12:08:13.478Z,12.63
2019-01-18T12:10:42.933Z,13.30
2019-01-18T12:13:12.426Z,10.47
2019-01-18T12:15:41.855Z,9.23
2019-01-18T12:18:11.296Z,13.07
2019-01-18T12:20:41.734Z,15.20
2019-01-18T12:23:12.104Z,8.63
2019-01-18T12:25:41.558Z,8.60
2019-01-18T12:28:11.097Z,19.87
2019-01-18T12:30:40.570Z,29.60
2019-01-18T12:33:10.036Z,39.23
2019-01-18T12:35:39.540Z,53.67
2019-01-18T12:38:09.065Z,33.53
2019-01-18T12:40:38.546Z,15.70
2019-01-18T12:43:07.978Z,12.73
2019-01-18T12:45:37.462Z,12.07
2019-01-18T12:48:06.913Z,9.27
2019-01-18T12:50:41.176Z,7.60
2019-01-18T12:53:10.631Z,8.10
2019-01-18T12:55:40.054Z,9.67
2019-01-18T12:58:10.656Z,9.80
2019-01-18T13:00:40.094Z,9.87
2019-01-18T13:03:09.863Z,10.93
2019-01-18T13:05:45.023Z,9.53
2019-01-18T13:08:14.477Z,6.57
2019-01-18T13:10:43.964Z,7.87
2019-01-18T13:13:13.477Z,9.97
2019-01-18T13:15:56.870Z,6.57
2019-01-18T13:18:26.443Z,10.13
2019-01-18T13:20:55.849Z,9.77
2019-01-18T13:23:25.282Z,7.57
2019-01-18T13:25:54.777Z,8.40
2019-01-18T13:28:24.229Z,8.50
2019-01-18T13:30:53.735Z,8.00
2019-01-18T13:33:23.458Z,8.03
2019-01-18T13:35:53.975Z,5.53
2019-01-18T13:38:23.389Z,8.50
2019-01-18T13:40:52.851Z,8.27
2019-01-18T13:43:22.378Z,6.57
2019-01-18T13:45:51.829Z,8.70
2019-01-18T13:48:21.342Z,8.27
2019-01-18T13:50:50.838Z,7.07
2019-01-18T13:53:20.308Z,6.30
2019-01-18T13:55:49.757Z,8.53
2019-01-18T13:58:19.251Z,10.63
2019-01-18T14:00:48.748Z,10.77
2019-01-18T14:03:18.187Z,9.30
2019-01-18T14:05:47.769Z,8.63
2019-01-18T14:08:17.231Z,9.37
2019-01-18T14:10:46.717Z,7.83
2019-01-18T14:13:16.266Z,10.03
2019-01-18T14:15:45.843Z,8.97
2019-01-18T14:18:15.328Z,7.67
2019-01-18T14:20:44.827Z,10.97
2019-01-18T14:23:14.423Z,10.60
2019-01-18T14:25:43.904Z,10.33
2019-01-18T14:28:13.507Z,11.47
2019-01-18T14:30:42.994Z,10.73
2019-01-18T14:33:12.453Z,10.73
2019-01-18T14:35:42.426Z,13.20
2019-01-18T14:38:11.958Z,11.97
2019-01-18T14:40:41.476Z,12.70
2019-01-18T14:43:11.085Z,10.13
2019-01-18T14:45:41.990Z,8.73
2019-01-18T14:48:11.521Z,11.13
2019-01-18T14:50:41.114Z,9.87
2019-01-18T14:53:10.625Z,19.30
2019-01-18T14:55:40.520Z,18.67
2019-01-18T14:58:12.354Z,14.77
2019-01-18T15:00:41.945Z,13.40
2019-01-18T15:03:12.135Z,17.27
2019-01-18T15:05:41.644Z,37.70
2019-01-18T15:08:11.136Z,17.83
2019-01-18T15:10:43.259Z,15.97
2019-01-18T15:13:18.007Z,16.47
2019-01-18T15:15:47.614Z,19.57
2019-01-18T15:18:17.879Z,15.40
2019-01-18T15:20:47.427Z,13.67
2019-01-18T15:23:16.994Z,12.47
2019-01-18T15:25:46.465Z,14.40
2019-01-18T15:28:16.110Z,11.93
2019-01-18T15:30:45.583Z,11.63
2019-01-18T15:33:15.267Z,15.27
2019-01-18T15:35:44.824Z,14.90
2019-01-18T15:38:23.342Z,15.20
2019-01-18T15:40:52.919Z,18.13
2019-01-18T15:43:23.555Z,24.57
2019-01-18T15:45:53.011Z,20.43
2019-01-18T15:48:22.555Z,20.43
2019-01-18T15:50:52.152Z,19.77
2019-01-18T15:53:21.675Z,19.63
2019-01-18T15:55:51.239Z,27.13
2019-01-18T15:58:20.710Z,23.67
2019-01-18T16:00:50.199Z,26.20
2019-01-18T16:03:19.795Z,23.90
2019-01-18T16:05:49.311Z,30.57
2019-01-18T16:08:18.783Z,37.23
2019-01-18T16:10:48.273Z,35.37
2019-01-18T16:13:17.871Z,46.13
2019-01-18T16:16:21.234Z,30.43
2019-01-18T16:18:50.981Z,36.50
2019-01-18T16:21:20.514Z,37.77
2019-01-18T16:23:49.973Z,42.00
2019-01-18T16:26:19.464Z,37.97
2019-01-18T16:28:48.941Z,32.93
2019-01-18T16:31:18.436Z,34.93
2019-01-18T16:33:47.941Z,31.27
2019-01-18T16:36:17.559Z,41.23
2019-01-18T16:38:47.041Z,49.00
2019-01-18T16:41:16.571Z,59.10
2019-01-18T16:43:46.908Z,70.73
2019-01-18T16:46:16.415Z,71.93
2019-01-18T16:48:45.922Z,84.50
2019-01-18T16:51:15.393Z,82.90
2019-01-18T16:53:44.836Z,81.73
2019-01-18T16:56:14.342Z,68.97
2019-01-18T16:58:43.845Z,67.73
2019-01-18T17:01:13.337Z,94.07
2019-01-18T17:03:43.026Z,72.90
2019-01-18T17:06:12.677Z,70.73
2019-01-18T17:08:42.109Z,72.37
2019-01-18T17:11:12.940Z,66.70
2019-01-18T17:13:42.887Z,69.37
2019-01-18T17:16:12.383Z,72.93
2019-01-18T17:18:42.061Z,68.37
2019-01-18T17:21:11.577Z,48.83
2019-01-18T17:23:41.061Z,42.57
2019-01-18T17:26:10.531Z,61.17
2019-01-18T17:28:40.057Z,82.87
2019-01-18T17:31:09.528Z,62.97
2019-01-18T17:33:39.019Z,47.37
2019-01-18T17:36:25.903Z,42.87
2019-01-18T17:39:18.631Z,29.73
2019-01-18T17:42:35.454Z,31.10
2019-01-18T17:45:43.930Z,29.40
2019-01-18T17:48:37.981Z,32.77
2019-01-18T17:51:51.594Z,24.97
2019-01-18T17:54:31.182Z,33.10
2019-01-18T17:57:40.440Z,38.10
2019-01-18T18:00:37.091Z,45.47
2019-01-18T18:03:16.565Z,47.03
2019-01-18T18:06:00.637Z,49.70
2019-01-18T18:08:54.344Z,45.87
2019-01-18T18:12:19.959Z,42.83
2019-01-18T18:15:33.590Z,39.23
2019-01-18T18:18:30.455Z,29.03
2019-01-18T18:21:17.528Z,27.33
2019-01-18T18:24:35.430Z,35.13
2019-01-18T18:27:26.005Z,55.30
2019-01-18T18:30:30.115Z,50.30
2019-01-18T18:33:50.544Z,75.13
2019-01-18T18:36:52.914Z,107.17
2019-01-18T18:40:02.355Z,41.17
2019-01-18T18:43:11.536Z,24.13
2019-01-18T18:46:14.380Z,37.53
2019-01-18T18:49:02.928Z,21.87
2019-01-18T18:52:07.882Z,25.23
2019-01-18T18:55:27.401Z,27.80
2019-01-18T18:58:42.656Z,28.33
2019-01-18T19:02:20.518Z,19.73
2019-01-18T19:05:09.350Z,26.63
2019-01-18T19:08:14.280Z,19.40
2019-01-18T19:11:24.114Z,19.07
2019-01-18T19:14:35.182Z,20.83
2019-01-18T19:17:26.372Z,18.03
2019-01-18T19:20:43.729Z,19.13
2019-01-18T19:23:56.770Z,22.33
2019-01-18T19:27:02.324Z,22.73
2019-01-18T19:30:08.268Z,20.87
2019-01-18T19:33:27.654Z,21.33
2019-01-18T19:36:43.202Z,27.03
2019-01-18T19:40:12.100Z,21.57
2019-01-18T19:43:37.518Z,28.03
2019-01-18T19:46:39.327Z,29.30
2019-01-18T19:49:41.176Z,24.60
2019-01-18T19:52:46.566Z,25.57
2019-01-18T19:55:40.565Z,24.63
2019-01-18T19:58:31.924Z,27.37
2019-01-18T20:01:33.814Z,21.57
2019-01-18T20:04:18.234Z,26.67
2019-01-18T20:07:40.854Z,23.77
2019-01-18T20:10:51.040Z,23.83
2019-01-18T20:13:57.490Z,23.73
2019-01-18T20:17:16.193Z,27.20
2019-01-18T20:20:32.364Z,28.17
2019-01-18T20:23:25.716Z,29.20
2019-01-18T20:26:19.062Z,27.23
2019-01-18T20:29:22.106Z,22.00
2019-01-18T20:32:56.966Z,29.43
2019-01-18T20:35:49.940Z,28.87
2019-01-18T20:39:13.178Z,34.67
2019-01-18T20:42:19.106Z,30.90
2019-01-18T20:45:12.759Z,32.80
2019-01-18T20:48:02.721Z,38.53
2019-01-18T20:51:03.677Z,26.03
2019-01-18T20:54:02.526Z,24.67
2019-01-18T20:56:48.190Z,28.60
2019-01-18T21:00:07.537Z,23.53
2019-01-18T21:03:07.339Z,33.23
2019-01-18T21:06:22.912Z,31.93
2019-01-18T21:09:14.550Z,40.83
2019-01-18T21:12:18.961Z,46.30
2019-01-18T21:15:15.839Z,35.30
2019-01-18T21:18:38.725Z,33.20
2019-01-18T21:21:35.941Z,31.17
2019-01-18T21:25:04.889Z,23.57
2019-01-18T21:28:08.949Z,24.87
2019-01-18T21:31:18.377Z,21.97
2019-01-18T21:34:14.286Z,21.77
2019-01-18T21:37:29.940Z,26.97
2019-01-18T21:40:51.797Z,18.80
2019-01-18T21:43:47.207Z,20.37
2019-01-18T21:46:49.199Z,20.40
2019-01-18T21:49:58.582Z,16.93
2019-01-18T21:52:50.266Z,20.87
2019-01-18T21:55:42.282Z,24.17
2019-01-18T21:58:52.855Z,21.47
2019-01-18T22:01:43.715Z,33.70
2019-01-18T22:05:01.509Z,24.87
2019-01-18T22:08:33.519Z,23.70
2019-01-18T22:11:38.101Z,29.47
2019-01-18T22:14:38.172Z,21.33
2019-01-18T22:18:00.423Z,27.93
2019-01-18T22:20:52.583Z,29.60
2019-01-18T22:24:01.068Z,30.70
2019-01-18T22:27:16.569Z,18.90
2019-01-18T22:30:00.474Z,26.73
2019-01-18T22:32:44.571Z,17.57
2019-01-18T22:35:50.689Z,23.17
2019-01-18T22:38:50.153Z,15.90
2019-01-18T22:41:41.275Z,17.47
2019-01-18T22:44:40.667Z,18.73
2019-01-18T22:47:57.011Z,20.60
2019-01-18T22:50:55.049Z,22.33
2019-01-18T22:54:02.888Z,26.33
2019-01-18T22:57:17.014Z,26.40
2019-01-18T23:00:42.292Z,26.13
2019-01-18T23:04:04.707Z,26.23
2019-01-18T23:07:24.024Z,24.73
2019-01-18T23:10:43.712Z,24.13
2019-01-18T23:14:03.208Z,28.50
2019-01-18T23:17:10.378Z,28.40
2019-01-18T23:20:06.763Z,37.43
2019-01-18T23:23:25.686Z,37.70
2019-01-18T23:26:27.128Z,25.47
2019-01-18T23:29:10.757Z,29.60
2019-01-18T23:32:21.167Z,25.23
2019-01-18T23:35:03.154Z,33.03
2019-01-18T23:37:56.693Z,27.47
2019-01-18T23:40:50.282Z,21.47
2019-01-18T23:44:00.840Z,22.27
2019-01-18T23:47:02.508Z,30.30
2019-01-18T23:49:47.368Z,30.73
2019-01-18T23:53:04.586Z,33.70
2019-01-18T23:56:29.960Z,24.40
2019-01-18T23:59:27.173Z,30.40
